createdAt,value
2022-10-05T00:00:20.338Z,88.30
2022-10-05T00:02:49.243Z,87.70
2022-10-05T00:05:21.929Z,87.60
2022-10-05T00:07:48.910Z,87.50
2022-10-05T00:10:18.234Z,87.60
2022-10-05T00:12:47.004Z,87.30
2022-10-05T00:15:16.608Z,87.20
2022-10-05T00:17:43.417Z,87.20
2022-10-05T00:20:28.201Z,87.30
2022-10-05T00:23:01.576Z,87.70
2022-10-05T00:25:28.368Z,87.70
2022-10-05T00:28:00.177Z,87.90
2022-10-05T00:30:32.887Z,87.80
2022-10-05T00:33:00.019Z,87.70
2022-10-05T00:35:29.223Z,87.40
2022-10-05T00:37:56.136Z,87.40
2022-10-05T00:40:36.319Z,87.60
2022-10-05T00:43:24.819Z,87.50
2022-10-05T00:45:56.193Z,87.30
2022-10-05T00:48:45.941Z,87.50
2022-10-05T00:51:24.643Z,87.70
2022-10-05T00:54:03.166Z,87.70
2022-10-05T00:56:45.177Z,87.10
2022-10-05T00:59:39.980Z,87.10
2022-10-05T01:02:17.729Z,87.40
2022-10-05T01:05:12.554Z,87.70
2022-10-05T01:07:51.477Z,87.50
2022-10-05T01:10:35.191Z,87.30
2022-10-05T01:13:28.009Z,87.00
2022-10-05T01:16:06.445Z,86.70
2022-10-05T01:18:41.875Z,87.30
2022-10-05T01:21:20.357Z,87.70
2022-10-05T01:23:55.950Z,87.30
2022-10-05T01:26:45.133Z,87.50
2022-10-05T01:29:28.122Z,86.80
2022-10-05T01:32:09.980Z,86.50
2022-10-05T01:34:52.146Z,86.40
2022-10-05T01:37:37.601Z,86.80
2022-10-05T01:40:24.918Z,87.10
2022-10-05T01:43:26.850Z,87.40
2022-10-05T01:46:04.873Z,87.90
2022-10-05T01:49:11.827Z,88.00
2022-10-05T01:51:54.756Z,88.10
2022-10-05T01:54:28.480Z,88.30
2022-10-05T01:57:17.166Z,87.20
2022-10-05T02:00:01.962Z,86.70
2022-10-05T02:02:31.591Z,86.90
2022-10-05T02:05:13.701Z,87.20
2022-10-05T02:07:46.917Z,87.00
2022-10-05T02:10:38.286Z,86.90
2022-10-05T02:13:12.959Z,86.60
2022-10-05T02:15:46.359Z,86.10
2022-10-05T02:18:19.629Z,86.20
2022-10-05T02:20:46.989Z,86.40
2022-10-05T02:23:20.579Z,86.80
2022-10-05T02:25:50.450Z,86.90
2022-10-05T02:28:20.696Z,87.20
2022-10-05T02:31:11.006Z,87.50
2022-10-05T02:33:37.895Z,86.80
2022-10-05T02:36:15.861Z,86.60
2022-10-05T02:39:15.115Z,86.80
2022-10-05T02:42:02.125Z,86.70
2022-10-05T02:44:33.509Z,86.80
2022-10-05T02:47:10.345Z,86.60
2022-10-05T02:49:53.065Z,86.10
2022-10-05T02:52:51.906Z,86.40
2022-10-05T02:55:25.035Z,86.40
2022-10-05T02:58:05.845Z,86.50
2022-10-05T03:00:40.464Z,87.30
2022-10-05T03:03:14.243Z,86.70
2022-10-05T03:05:50.210Z,86.60
2022-10-05T03:08:27.742Z,87.00
2022-10-05T03:11:22.159Z,87.20
2022-10-05T03:14:06.879Z,87.20
2022-10-05T03:17:00.752Z,87.50
2022-10-05T03:19:54.675Z,88.00
2022-10-05T03:22:28.679Z,87.90
2022-10-05T03:25:43.470Z,87.90
2022-10-05T03:28:15.958Z,87.60
2022-10-05T03:31:04.747Z,87.60
2022-10-05T03:33:37.273Z,88.10
2022-10-05T03:36:18.007Z,88.40
2022-10-05T03:38:55.388Z,88.80
2022-10-05T03:41:40.223Z,89.00
2022-10-05T03:44:45.431Z,89.30
2022-10-05T03:47:25.424Z,89.40
2022-10-05T03:50:03.974Z,89.70
2022-10-05T03:52:39.343Z,89.80
2022-10-05T03:55:21.871Z,89.80
2022-10-05T03:57:50.975Z,89.80
2022-10-05T04:00:23.162Z,89.80
2022-10-05T04:03:00.395Z,89.80
2022-10-05T04:05:41.279Z,89.80
2022-10-05T04:08:16.586Z,89.80
2022-10-05T04:10:55.870Z,89.80
2022-10-05T04:13:37.598Z,89.80
2022-10-05T04:16:17.581Z,89.80
2022-10-05T04:18:50.077Z,89.80
2022-10-05T04:21:29.490Z,89.80
2022-10-05T04:24:28.920Z,89.80
2022-10-05T04:27:00.127Z,89.80
2022-10-05T04:29:38.371Z,89.80
2022-10-05T04:32:23.771Z,89.80
2022-10-05T04:35:12.093Z,89.80
2022-10-05T04:38:25.472Z,89.80
2022-10-05T04:41:16.445Z,89.80
2022-10-05T04:43:55.851Z,89.80
2022-10-05T04:47:02.106Z,89.80
2022-10-05T04:49:53.564Z,89.80
2022-10-05T04:52:51.528Z,89.80
2022-10-05T04:56:05.283Z,89.80
2022-10-05T04:58:42.394Z,89.80
2022-10-05T05:01:18.648Z,89.80
2022-10-05T05:04:00.459Z,89.80
2022-10-05T05:06:42.151Z,89.80
2022-10-05T05:09:25.095Z,89.80
2022-10-05T05:11:58.250Z,89.80
2022-10-05T05:14:35.931Z,89.80
2022-10-05T05:17:13.228Z,89.80
2022-10-05T05:20:01.234Z,89.80
2022-10-05T05:22:55.829Z,89.80
2022-10-05T05:25:32.091Z,89.80
2022-10-05T05:28:08.458Z,89.80
2022-10-05T05:30:51.019Z,89.80
2022-10-05T05:33:23.218Z,89.80
2022-10-05T05:35:56.441Z,89.80
2022-10-05T05:38:32.070Z,89.80
2022-10-05T05:41:10.982Z,89.80
2022-10-05T05:43:59.358Z,89.80
2022-10-05T05:46:58.277Z,89.80
2022-10-05T05:49:27.265Z,89.80
2022-10-05T05:52:04.270Z,89.80
2022-10-05T05:54:37.179Z,89.80
2022-10-05T05:57:21.537Z,89.80
2022-10-05T06:00:00.475Z,89.80
2022-10-05T06:02:39.741Z,89.80
2022-10-05T06:05:28.982Z,89.80
2022-10-05T06:07:58.189Z,89.80
2022-10-05T06:10:43.865Z,89.80
2022-10-05T06:13:19.498Z,89.80
2022-10-05T06:16:14.929Z,89.80
2022-10-05T06:18:44.662Z,89.80
2022-10-05T06:21:39.467Z,89.80
2022-10-05T06:24:16.469Z,89.80
2022-10-05T06:27:09.061Z,89.80
2022-10-05T06:29:58.624Z,89.80
2022-10-05T06:32:47.149Z,89.80
2022-10-05T06:35:36.231Z,89.80
2022-10-05T06:38:34.977Z,89.80
2022-10-05T06:41:08.378Z,89.80
2022-10-05T06:44:06.049Z,89.80
2022-10-05T06:46:40.656Z,89.80
2022-10-05T06:49:29.267Z,89.80
2022-10-05T06:52:12.624Z,89.80
2022-10-05T06:55:02.793Z,89.80
2022-10-05T06:57:43.528Z,89.80
2022-10-05T07:00:34.810Z,89.80
2022-10-05T07:03:14.834Z,89.80
2022-10-05T07:06:10.064Z,89.80
2022-10-05T07:08:42.525Z,89.80
2022-10-05T07:11:55.309Z,89.80
2022-10-05T07:14:43.240Z,89.80
2022-10-05T07:17:26.243Z,89.80
2022-10-05T07:20:11.045Z,89.80
2022-10-05T07:22:43.554Z,89.80
2022-10-05T07:25:31.888Z,89.80
2022-10-05T07:28:16.992Z,89.80
2022-10-05T07:30:58.364Z,89.80
2022-10-05T07:33:38.983Z,89.80
2022-10-05T07:36:42.989Z,89.80
2022-10-05T07:39:59.506Z,89.80
2022-10-05T07:42:56.339Z,89.80
2022-10-05T07:45:51.212Z,89.80
2022-10-05T07:48:33.194Z,89.80
2022-10-05T07:51:08.736Z,89.80
2022-10-05T07:53:44.049Z,89.80
2022-10-05T07:56:44.383Z,89.80
2022-10-05T07:59:22.391Z,89.80
2022-10-05T08:01:57.289Z,89.80
2022-10-05T08:04:51.969Z,89.80
2022-10-05T08:07:18.853Z,89.80
2022-10-05T08:10:16.051Z,89.80
2022-10-05T08:12:57.858Z,89.80
2022-10-05T08:15:48.552Z,89.80
2022-10-05T08:18:50.290Z,89.80
2022-10-05T08:21:22.820Z,89.80
2022-10-05T08:24:20.331Z,89.80
2022-10-05T08:27:10.761Z,89.80
2022-10-05T08:29:46.183Z,89.80
2022-10-05T08:32:33.675Z,89.80
2022-10-05T08:35:25.076Z,89.80
2022-10-05T08:37:52.387Z,89.80
2022-10-05T08:40:19.195Z,89.80
2022-10-05T08:42:54.608Z,89.80
2022-10-05T08:45:49.263Z,89.60
2022-10-05T08:48:46.216Z,89.50
2022-10-05T08:51:31.717Z,89.40
2022-10-05T08:54:14.239Z,89.30
2022-10-05T08:56:50.035Z,89.10
2022-10-05T08:59:38.324Z,89.10
2022-10-05T09:02:28.565Z,89.10
2022-10-05T09:05:16.604Z,89.10
2022-10-05T09:08:21.746Z,89.20
2022-10-05T09:11:06.959Z,89.10
2022-10-05T09:13:51.791Z,88.80
2022-10-05T09:20:26.563Z,88.60
2022-10-05T09:23:08.841Z,88.50
2022-10-05T09:25:55.738Z,88.90
2022-10-05T09:28:55.940Z,88.90
2022-10-05T09:31:45.968Z,88.70
2022-10-05T09:34:18.901Z,88.90
2022-10-05T09:36:48.352Z,88.80
2022-10-05T09:39:29.960Z,88.70
2022-10-05T09:42:17.670Z,88.40
2022-10-05T09:45:03.256Z,88.50
2022-10-05T09:47:45.120Z,88.50
2022-10-05T09:50:50.040Z,88.30
2022-10-05T09:53:50.833Z,88.20
2022-10-05T09:56:34.572Z,88.30
2022-10-05T09:59:12.985Z,88.20
2022-10-05T10:01:49.011Z,88.10
2022-10-05T10:04:28.566Z,88.20
2022-10-05T10:07:13.816Z,87.80
2022-10-05T10:10:20.090Z,87.80
2022-10-05T10:13:24.374Z,88.00
2022-10-05T10:16:06.099Z,88.10
2022-10-05T10:19:04.918Z,88.50
2022-10-05T10:21:46.778Z,88.50
2022-10-05T10:24:16.377Z,88.10
2022-10-05T10:27:09.369Z,87.20
2022-10-05T10:30:18.840Z,86.70
2022-10-05T10:32:57.002Z,86.00
2022-10-05T10:36:06.068Z,85.90
2022-10-05T10:39:04.566Z,85.00
2022-10-05T10:41:55.272Z,84.50
2022-10-05T10:44:47.135Z,84.30
2022-10-05T10:47:32.743Z,84.50
2022-10-05T10:50:30.143Z,84.40
2022-10-05T10:53:14.810Z,84.50
2022-10-05T10:56:06.282Z,84.80
2022-10-05T10:58:44.886Z,84.90
2022-10-05T11:01:47.502Z,84.00
2022-10-05T11:04:54.327Z,83.40
2022-10-05T11:07:44.481Z,83.20
2022-10-05T11:10:20.117Z,83.10
2022-10-05T11:13:01.225Z,83.30
2022-10-05T11:16:02.113Z,83.30
2022-10-05T11:18:50.879Z,83.80
2022-10-05T11:21:36.477Z,83.90
2022-10-05T11:24:28.466Z,83.80
2022-10-05T11:27:29.190Z,83.70
2022-10-05T11:30:19.761Z,83.70
2022-10-05T11:33:00.375Z,83.60
2022-10-05T11:35:45.399Z,83.80
2022-10-05T11:38:43.301Z,83.90
2022-10-05T11:41:34.879Z,84.10
2022-10-05T11:44:28.344Z,83.60
2022-10-05T11:47:16.875Z,83.50
2022-10-05T11:49:54.660Z,83.50
2022-10-05T11:52:37.793Z,83.60
2022-10-05T11:55:22.387Z,83.40
2022-10-05T11:57:55.760Z,83.60
2022-10-05T12:00:24.085Z,83.60
2022-10-05T12:03:21.479Z,83.60
2022-10-05T12:05:57.228Z,83.80
2022-10-05T12:08:42.353Z,83.80
2022-10-05T12:11:28.058Z,83.90
2022-10-05T12:14:24.130Z,83.90
2022-10-05T12:17:09.880Z,84.00
2022-10-05T12:19:43.977Z,84.20
2022-10-05T12:22:10.643Z,84.30
2022-10-05T12:24:37.188Z,84.10
2022-10-05T12:27:22.429Z,84.10
2022-10-05T12:30:36.889Z,84.30
2022-10-05T12:33:16.867Z,84.40
2022-10-05T12:36:13.637Z,84.30
2022-10-05T12:38:54.660Z,84.50
2022-10-05T12:41:21.312Z,84.30
2022-10-05T12:44:02.862Z,84.20
2022-10-05T12:46:41.574Z,84.60
2022-10-05T12:49:32.549Z,84.40
2022-10-05T12:52:01.915Z,83.50
2022-10-05T12:54:37.280Z,83.50
2022-10-05T12:57:35.264Z,83.40
2022-10-05T13:00:23.214Z,83.40
2022-10-05T13:02:58.493Z,83.10
2022-10-05T13:05:44.899Z,82.80
2022-10-05T13:08:23.699Z,82.80
2022-10-05T13:11:16.864Z,82.80
2022-10-05T13:16:33.716Z,82.70
2022-10-05T13:19:09.119Z,82.40
2022-10-05T13:54:14.204Z,84.70
2022-10-05T13:56:48.386Z,83.20
2022-10-05T13:59:19.095Z,82.60
2022-10-05T14:01:59.287Z,82.40
2022-10-05T14:04:43.661Z,82.50
2022-10-05T14:07:31.250Z,82.50
2022-10-05T14:09:59.522Z,82.60
2022-10-05T14:12:27.475Z,82.10
2022-10-05T14:14:57.011Z,81.70
2022-10-05T14:17:43.871Z,81.60
2022-10-05T14:20:26.498Z,81.80
2022-10-05T14:23:02.950Z,81.60
2022-10-05T14:25:30.942Z,81.10
2022-10-05T14:28:03.040Z,81.00
2022-10-05T14:30:31.486Z,80.90
